sensor_id;sensor_type;location;lat;lon;timestamp;P1;durP1;ratioP1;P2;durP2;ratioP2
22939;SDS011;11636;52.086;5.090;2022-12-16T00:01:45;42.42;;;28.02;;
22939;SDS011;11636;52.086;5.090;2022-12-16T00:04:12;42.53;;;28.48;;
22939;SDS011;11636;52.086;5.090;2022-12-16T00:06:42;38.78;;;27.40;;
22939;SDS011;11636;52.086;5.090;2022-12-16T00:09:16;39.03;;;26.75;;
22939;SDS011;11636;52.086;5.090;2022-12-16T00:11:44;34.70;;;25.85;;
22939;SDS011;11636;52.086;5.090;2022-12-16T00:14:18;31.48;;;23.23;;
22939;SDS011;11636;52.086;5.090;2022-12-16T00:16:59;34.45;;;23.98;;
22939;SDS011;11636;52.086;5.090;2022-12-16T00:19:26;30.13;;;21.95;;
22939;SDS011;11636;52.086;5.090;2022-12-16T00:21:59;27.80;;;19.52;;
22939;SDS011;11636;52.086;5.090;2022-12-16T00:24:26;28.88;;;20.45;;
22939;SDS011;11636;52.086;5.090;2022-12-16T00:26:56;29.38;;;20.05;;
22939;SDS011;11636;52.086;5.090;2022-12-16T00:29:29;26.35;;;18.77;;
22939;SDS011;11636;52.086;5.090;2022-12-16T00:31:56;23.70;;;16.98;;
22939;SDS011;11636;52.086;5.090;2022-12-16T00:34:30;28.20;;;19.95;;
22939;SDS011;11636;52.086;5.090;2022-12-16T00:37:09;32.72;;;21.05;;
22939;SDS011;11636;52.086;5.090;2022-12-16T00:39:43;30.35;;;19.98;;
22939;SDS011;11636;52.086;5.090;2022-12-16T00:42:10;28.10;;;18.75;;
22939;SDS011;11636;52.086;5.090;2022-12-16T00:44:37;24.98;;;17.70;;
22939;SDS011;11636;52.086;5.090;2022-12-16T00:47:17;25.15;;;17.08;;
22939;SDS011;11636;52.086;5.090;2022-12-16T00:49:50;25.27;;;16.98;;
22939;SDS011;11636;52.086;5.090;2022-12-16T00:52:25;21.63;;;14.35;;
22939;SDS011;11636;52.086;5.090;2022-12-16T00:54:52;23.85;;;13.85;;
22939;SDS011;11636;52.086;5.090;2022-12-16T00:57:34;23.38;;;13.90;;
22939;SDS011;11636;52.086;5.090;2022-12-16T01:00:08;21.02;;;13.02;;
22939;SDS011;11636;52.086;5.090;2022-12-16T01:02:45;18.33;;;12.32;;
22939;SDS011;11636;52.086;5.090;2022-12-16T01:05:15;18.85;;;11.90;;
22939;SDS011;11636;52.086;5.090;2022-12-16T01:07:52;17.88;;;11.23;;
22939;SDS011;11636;52.086;5.090;2022-12-16T01:10:20;19.55;;;10.80;;
22939;SDS011;11636;52.086;5.090;2022-12-16T01:12:48;15.70;;;10.13;;
22939;SDS011;11636;52.086;5.090;2022-12-16T01:15:21;15.00;;;9.80;;
22939;SDS011;11636;52.086;5.090;2022-12-16T01:17:55;14.23;;;9.05;;
22939;SDS011;11636;52.086;5.090;2022-12-16T01:20:28;13.05;;;8.52;;
22939;SDS011;11636;52.086;5.090;2022-12-16T01:22:58;12.38;;;8.50;;
22939;SDS011;11636;52.086;5.090;2022-12-16T01:25:31;11.25;;;7.43;;
22939;SDS011;11636;52.086;5.090;2022-12-16T01:27:58;10.95;;;7.18;;
22939;SDS011;11636;52.086;5.090;2022-12-16T01:30:25;11.20;;;7.43;;
22939;SDS011;11636;52.086;5.090;2022-12-16T01:33:00;11.60;;;7.30;;
22939;SDS011;11636;52.086;5.090;2022-12-16T01:35:26;12.35;;;6.95;;
22939;SDS011;11636;52.086;5.090;2022-12-16T01:38:20;12.70;;;7.10;;
22939;SDS011;11636;52.086;5.090;2022-12-16T01:40:54;11.02;;;6.80;;
22939;SDS011;11636;52.086;5.090;2022-12-16T01:43:31;10.77;;;6.55;;
22939;SDS011;11636;52.086;5.090;2022-12-16T01:48:53;9.60;;;5.30;;
22939;SDS011;11636;52.086;5.090;2022-12-16T01:51:41;8.57;;;4.78;;
22939;SDS011;11636;52.086;5.090;2022-12-16T01:54:19;7.00;;;4.65;;
22939;SDS011;11636;52.086;5.090;2022-12-16T01:56:57;8.30;;;4.53;;
22939;SDS011;11636;52.086;5.090;2022-12-16T01:59:28;7.38;;;4.43;;
22939;SDS011;11636;52.086;5.090;2022-12-16T02:02:03;8.68;;;4.18;;
22939;SDS011;11636;52.086;5.090;2022-12-16T02:04:30;7.07;;;4.38;;
22939;SDS011;11636;52.086;5.090;2022-12-16T02:07:04;6.82;;;3.83;;
22939;SDS011;11636;52.086;5.090;2022-12-16T02:09:38;7.15;;;4.38;;
22939;SDS011;11636;52.086;5.090;2022-12-16T02:12:09;7.75;;;4.00;;
22939;SDS011;11636;52.086;5.090;2022-12-16T02:17:39;9.00;;;4.55;;
22939;SDS011;11636;52.086;5.090;2022-12-16T02:20:23;10.52;;;4.78;;
22939;SDS011;11636;52.086;5.090;2022-12-16T02:26:21;9.65;;;4.00;;
22939;SDS011;11636;52.086;5.090;2022-12-16T02:29:10;11.32;;;4.72;;
22939;SDS011;11636;52.086;5.090;2022-12-16T02:34:48;7.97;;;4.32;;
22939;SDS011;11636;52.086;5.090;2022-12-16T02:40:50;7.68;;;3.97;;
22939;SDS011;11636;52.086;5.090;2022-12-16T02:45:59;8.73;;;4.40;;
22939;SDS011;11636;52.086;5.090;2022-12-16T02:48:27;6.30;;;3.80;;
22939;SDS011;11636;52.086;5.090;2022-12-16T02:51:01;6.15;;;3.75;;
22939;SDS011;11636;52.086;5.090;2022-12-16T02:53:28;7.22;;;4.07;;
22939;SDS011;11636;52.086;5.090;2022-12-16T03:04:39;6.82;;;4.05;;
22939;SDS011;11636;52.086;5.090;2022-12-16T03:07:30;6.88;;;4.00;;
22939;SDS011;11636;52.086;5.090;2022-12-16T03:09:59;10.52;;;4.57;;
22939;SDS011;11636;52.086;5.090;2022-12-16T03:12:40;8.60;;;5.00;;
22939;SDS011;11636;52.086;5.090;2022-12-16T03:15:17;12.45;;;5.55;;
22939;SDS011;11636;52.086;5.090;2022-12-16T03:17:54;7.22;;;4.50;;
22939;SDS011;11636;52.086;5.090;2022-12-16T03:23:10;14.52;;;6.60;;
22939;SDS011;11636;52.086;5.090;2022-12-16T03:25:48;7.95;;;4.70;;
22939;SDS011;11636;52.086;5.090;2022-12-16T03:28:24;9.98;;;5.50;;
22939;SDS011;11636;52.086;5.090;2022-12-16T03:31:06;16.85;;;7.65;;
22939;SDS011;11636;52.086;5.090;2022-12-16T03:33:46;14.60;;;7.93;;
22939;SDS011;11636;52.086;5.090;2022-12-16T03:36:25;12.50;;;7.67;;
22939;SDS011;11636;52.086;5.090;2022-12-16T03:38:53;11.70;;;6.20;;
22939;SDS011;11636;52.086;5.090;2022-12-16T03:41:28;14.25;;;6.65;;
22939;SDS011;11636;52.086;5.090;2022-12-16T03:44:03;12.25;;;6.50;;
22939;SDS011;11636;52.086;5.090;2022-12-16T03:46:37;12.73;;;6.43;;
22939;SDS011;11636;52.086;5.090;2022-12-16T03:49:04;9.55;;;5.90;;
22939;SDS011;11636;52.086;5.090;2022-12-16T03:51:37;9.57;;;5.75;;
22939;SDS011;11636;52.086;5.090;2022-12-16T03:54:10;10.45;;;5.55;;
22939;SDS011;11636;52.086;5.090;2022-12-16T03:56:43;8.15;;;5.03;;
22939;SDS011;11636;52.086;5.090;2022-12-16T03:59:17;8.75;;;5.57;;
22939;SDS011;11636;52.086;5.090;2022-12-16T04:01:44;8.73;;;4.88;;
22939;SDS011;11636;52.086;5.090;2022-12-16T04:04:11;10.63;;;6.03;;
22939;SDS011;11636;52.086;5.090;2022-12-16T04:06:45;10.23;;;6.10;;
22939;SDS011;11636;52.086;5.090;2022-12-16T04:09:38;9.73;;;6.10;;
22939;SDS011;11636;52.086;5.090;2022-12-16T04:12:18;12.75;;;6.97;;
22939;SDS011;11636;52.086;5.090;2022-12-16T04:15:06;10.52;;;6.40;;
22939;SDS011;11636;52.086;5.090;2022-12-16T04:17:59;10.60;;;6.00;;
22939;SDS011;11636;52.086;5.090;2022-12-16T04:21:07;11.32;;;5.90;;
22939;SDS011;11636;52.086;5.090;2022-12-16T04:24:07;11.32;;;6.20;;
22939;SDS011;11636;52.086;5.090;2022-12-16T04:26:52;10.25;;;5.57;;
22939;SDS011;11636;52.086;5.090;2022-12-16T04:29:43;8.70;;;5.13;;
22939;SDS011;11636;52.086;5.090;2022-12-16T04:32:47;7.10;;;4.70;;
22939;SDS011;11636;52.086;5.090;2022-12-16T04:35:42;7.13;;;4.28;;
22939;SDS011;11636;52.086;5.090;2022-12-16T04:38:34;6.82;;;4.60;;
22939;SDS011;11636;52.086;5.090;2022-12-16T04:41:26;5.55;;;3.67;;
22939;SDS011;11636;52.086;5.090;2022-12-16T04:44:12;6.00;;;3.72;;
22939;SDS011;11636;52.086;5.090;2022-12-16T04:47:04;7.68;;;3.63;;
22939;SDS011;11636;52.086;5.090;2022-12-16T04:49:49;5.50;;;3.20;;
22939;SDS011;11636;52.086;5.090;2022-12-16T04:52:42;4.82;;;2.92;;
22939;SDS011;11636;52.086;5.090;2022-12-16T04:55:28;5.45;;;3.05;;
22939;SDS011;11636;52.086;5.090;2022-12-16T04:58:27;5.28;;;3.08;;
22939;SDS011;11636;52.086;5.090;2022-12-16T05:01:19;5.22;;;3.20;;
22939;SDS011;11636;52.086;5.090;2022-12-16T05:04:05;5.93;;;3.65;;
22939;SDS011;11636;52.086;5.090;2022-12-16T05:07:14;5.20;;;3.65;;
22939;SDS011;11636;52.086;5.090;2022-12-16T05:10:04;4.72;;;2.35;;
22939;SDS011;11636;52.086;5.090;2022-12-16T05:12:57;7.28;;;3.22;;
22939;SDS011;11636;52.086;5.090;2022-12-16T05:15:54;5.55;;;3.08;;
22939;SDS011;11636;52.086;5.090;2022-12-16T05:18:40;5.22;;;2.85;;
22939;SDS011;11636;52.086;5.090;2022-12-16T05:21:32;6.43;;;3.00;;
22939;SDS011;11636;52.086;5.090;2022-12-16T05:24:21;6.10;;;3.65;;
22939;SDS011;11636;52.086;5.090;2022-12-16T05:27:18;8.23;;;3.92;;
22939;SDS011;11636;52.086;5.090;2022-12-16T05:30:10;5.57;;;3.10;;
22939;SDS011;11636;52.086;5.090;2022-12-16T05:33:04;5.43;;;3.45;;
22939;SDS011;11636;52.086;5.090;2022-12-16T05:35:56;6.88;;;3.90;;
22939;SDS011;11636;52.086;5.090;2022-12-16T05:38:42;5.63;;;3.33;;
22939;SDS011;11636;52.086;5.090;2022-12-16T05:41:34;5.72;;;3.30;;
22939;SDS011;11636;52.086;5.090;2022-12-16T05:44:27;5.65;;;3.55;;
22939;SDS011;11636;52.086;5.090;2022-12-16T05:47:27;6.65;;;3.53;;
22939;SDS011;11636;52.086;5.090;2022-12-16T05:50:13;6.60;;;3.92;;
22939;SDS011;11636;52.086;5.090;2022-12-16T05:53:05;6.22;;;3.70;;
22939;SDS011;11636;52.086;5.090;2022-12-16T05:55:51;8.50;;;3.90;;
22939;SDS011;11636;52.086;5.090;2022-12-16T06:01:29;6.63;;;3.70;;
22939;SDS011;11636;52.086;5.090;2022-12-16T06:04:20;7.57;;;4.22;;
22939;SDS011;11636;52.086;5.090;2022-12-16T06:07:06;8.02;;;4.57;;
22939;SDS011;11636;52.086;5.090;2022-12-16T06:10:00;6.97;;;4.03;;
22939;SDS011;11636;52.086;5.090;2022-12-16T06:12:46;6.80;;;4.30;;
22939;SDS011;11636;52.086;5.090;2022-12-16T06:15:38;8.13;;;4.70;;
22939;SDS011;11636;52.086;5.090;2022-12-16T06:18:35;5.93;;;3.67;;
22939;SDS011;11636;52.086;5.090;2022-12-16T06:21:21;7.43;;;4.22;;
22939;SDS011;11636;52.086;5.090;2022-12-16T06:24:13;8.15;;;4.40;;
22939;SDS011;11636;52.086;5.090;2022-12-16T06:26:58;6.88;;;4.47;;
22939;SDS011;11636;52.086;5.090;2022-12-16T06:29:50;7.03;;;3.97;;
22939;SDS011;11636;52.086;5.090;2022-12-16T06:32:37;6.00;;;3.58;;
22939;SDS011;11636;52.086;5.090;2022-12-16T06:35:29;9.43;;;4.40;;
22939;SDS011;11636;52.086;5.090;2022-12-16T06:38:21;6.40;;;3.72;;
22939;SDS011;11636;52.086;5.090;2022-12-16T06:41:07;6.32;;;4.13;;
22939;SDS011;11636;52.086;5.090;2022-12-16T06:43:59;6.88;;;3.90;;
22939;SDS011;11636;52.086;5.090;2022-12-16T06:46:44;6.55;;;4.00;;
22939;SDS011;11636;52.086;5.090;2022-12-16T06:49:36;6.60;;;4.00;;
22939;SDS011;11636;52.086;5.090;2022-12-16T06:52:33;7.18;;;3.88;;
22939;SDS011;11636;52.086;5.090;2022-12-16T06:55:24;7.25;;;4.13;;
22939;SDS011;11636;52.086;5.090;2022-12-16T06:58:10;7.65;;;4.30;;
22939;SDS011;11636;52.086;5.090;2022-12-16T07:01:02;8.43;;;4.28;;
22939;SDS011;11636;52.086;5.090;2022-12-16T07:03:56;7.43;;;4.22;;
22939;SDS011;11636;52.086;5.090;2022-12-16T07:06:48;6.37;;;3.97;;
22939;SDS011;11636;52.086;5.090;2022-12-16T07:09:40;6.38;;;3.58;;
22939;SDS011;11636;52.086;5.090;2022-12-16T07:12:42;6.68;;;3.83;;
22939;SDS011;11636;52.086;5.090;2022-12-16T07:15:45;5.93;;;3.55;;
22939;SDS011;11636;52.086;5.090;2022-12-16T07:18:44;7.38;;;4.65;;
22939;SDS011;11636;52.086;5.090;2022-12-16T07:21:36;8.88;;;5.07;;
22939;SDS011;11636;52.086;5.090;2022-12-16T07:24:25;7.78;;;4.97;;
22939;SDS011;11636;52.086;5.090;2022-12-16T07:27:19;8.38;;;5.47;;
22939;SDS011;11636;52.086;5.090;2022-12-16T07:30:05;12.35;;;6.88;;
22939;SDS011;11636;52.086;5.090;2022-12-16T07:33:03;7.85;;;4.57;;
22939;SDS011;11636;52.086;5.090;2022-12-16T07:35:56;9.15;;;4.95;;
22939;SDS011;11636;52.086;5.090;2022-12-16T07:38:48;9.38;;;6.00;;
22939;SDS011;11636;52.086;5.090;2022-12-16T07:41:40;8.90;;;4.50;;
22939;SDS011;11636;52.086;5.090;2022-12-16T07:44:26;8.75;;;5.10;;
22939;SDS011;11636;52.086;5.090;2022-12-16T07:47:19;8.75;;;4.78;;
22939;SDS011;11636;52.086;5.090;2022-12-16T07:50:05;9.43;;;4.75;;
22939;SDS011;11636;52.086;5.090;2022-12-16T07:52:58;6.82;;;4.40;;
22939;SDS011;11636;52.086;5.090;2022-12-16T07:55:44;6.47;;;4.35;;
22939;SDS011;11636;52.086;5.090;2022-12-16T07:58:39;6.88;;;4.13;;
22939;SDS011;11636;52.086;5.090;2022-12-16T08:01:24;9.35;;;4.82;;
22939;SDS011;11636;52.086;5.090;2022-12-16T08:04:16;7.00;;;4.20;;
22939;SDS011;11636;52.086;5.090;2022-12-16T08:07:08;7.97;;;4.43;;
22939;SDS011;11636;52.086;5.090;2022-12-16T08:10:00;9.25;;;5.03;;
22939;SDS011;11636;52.086;5.090;2022-12-16T08:13:02;8.73;;;4.57;;
22939;SDS011;11636;52.086;5.090;2022-12-16T08:15:51;7.53;;;4.45;;
22939;SDS011;11636;52.086;5.090;2022-12-16T08:18:43;6.70;;;4.15;;
22939;SDS011;11636;52.086;5.090;2022-12-16T08:21:36;7.60;;;4.45;;
22939;SDS011;11636;52.086;5.090;2022-12-16T08:24:22;6.78;;;4.03;;
22939;SDS011;11636;52.086;5.090;2022-12-16T08:27:37;14.68;;;6.22;;
22939;SDS011;11636;52.086;5.090;2022-12-16T08:30:23;10.98;;;4.78;;
22939;SDS011;11636;52.086;5.090;2022-12-16T08:33:20;10.38;;;4.95;;
22939;SDS011;11636;52.086;5.090;2022-12-16T08:36:12;21.40;;;6.63;;
22939;SDS011;11636;52.086;5.090;2022-12-16T08:38:58;13.30;;;5.22;;
22939;SDS011;11636;52.086;5.090;2022-12-16T08:41:49;14.27;;;4.90;;
22939;SDS011;11636;52.086;5.090;2022-12-16T08:44:35;18.98;;;5.88;;
22939;SDS011;11636;52.086;5.090;2022-12-16T08:47:28;19.42;;;5.85;;
22939;SDS011;11636;52.086;5.090;2022-12-16T08:50:21;16.92;;;5.35;;
22939;SDS011;11636;52.086;5.090;2022-12-16T08:53:13;18.98;;;6.50;;
22939;SDS011;11636;52.086;5.090;2022-12-16T08:56:05;15.05;;;5.25;;
22939;SDS011;11636;52.086;5.090;2022-12-16T08:58:54;11.55;;;5.40;;
22939;SDS011;11636;52.086;5.090;2022-12-16T09:01:45;10.27;;;4.60;;
22939;SDS011;11636;52.086;5.090;2022-12-16T09:04:31;10.68;;;4.20;;
22939;SDS011;11636;52.086;5.090;2022-12-16T09:07:25;9.07;;;3.97;;
22939;SDS011;11636;52.086;5.090;2022-12-16T09:10:17;8.73;;;4.35;;
22939;SDS011;11636;52.086;5.090;2022-12-16T09:13:09;7.28;;;3.35;;
22939;SDS011;11636;52.086;5.090;2022-12-16T09:16:03;8.38;;;4.75;;
22939;SDS011;11636;52.086;5.090;2022-12-16T09:18:48;9.63;;;4.93;;
22939;SDS011;11636;52.086;5.090;2022-12-16T09:22:01;8.63;;;3.95;;
22939;SDS011;11636;52.086;5.090;2022-12-16T09:27:47;13.05;;;6.07;;
22939;SDS011;11636;52.086;5.090;2022-12-16T09:30:34;16.63;;;6.75;;
22939;SDS011;11636;52.086;5.090;2022-12-16T09:33:26;13.27;;;6.32;;
22939;SDS011;11636;52.086;5.090;2022-12-16T09:36:11;10.23;;;5.82;;
22939;SDS011;11636;52.086;5.090;2022-12-16T09:39:03;12.45;;;5.90;;
22939;SDS011;11636;52.086;5.090;2022-12-16T09:42:14;10.02;;;5.63;;
22939;SDS011;11636;52.086;5.090;2022-12-16T09:48:49;8.98;;;5.32;;
22939;SDS011;11636;52.086;5.090;2022-12-16T09:51:50;12.25;;;5.88;;
22939;SDS011;11636;52.086;5.090;2022-12-16T09:54:44;8.73;;;5.07;;
22939;SDS011;11636;52.086;5.090;2022-12-16T09:57:36;10.82;;;5.10;;
22939;SDS011;11636;52.086;5.090;2022-12-16T10:00:23;14.00;;;5.82;;
22939;SDS011;11636;52.086;5.090;2022-12-16T10:03:19;9.50;;;5.40;;
22939;SDS011;11636;52.086;5.090;2022-12-16T10:09:28;10.45;;;5.50;;
22939;SDS011;11636;52.086;5.090;2022-12-16T10:12:35;9.93;;;5.30;;
22939;SDS011;11636;52.086;5.090;2022-12-16T10:28:10;8.75;;;4.90;;
22939;SDS011;11636;52.086;5.090;2022-12-16T10:31:30;11.10;;;5.13;;
22939;SDS011;11636;52.086;5.090;2022-12-16T10:34:19;11.05;;;4.93;;
22939;SDS011;11636;52.086;5.090;2022-12-16T10:40:24;8.20;;;4.40;;
22939;SDS011;11636;52.086;5.090;2022-12-16T10:46:11;11.32;;;4.63;;
22939;SDS011;11636;52.086;5.090;2022-12-16T10:49:07;8.70;;;4.03;;
22939;SDS011;11636;52.086;5.090;2022-12-16T10:52:08;5.72;;;3.58;;
22939;SDS011;11636;52.086;5.090;2022-12-16T10:54:57;10.38;;;4.80;;
22939;SDS011;11636;52.086;5.090;2022-12-16T11:01:19;11.10;;;5.50;;
22939;SDS011;11636;52.086;5.090;2022-12-16T11:04:28;12.95;;;6.80;;
22939;SDS011;11636;52.086;5.090;2022-12-16T11:07:21;14.80;;;8.23;;
22939;SDS011;11636;52.086;5.090;2022-12-16T11:13:24;12.95;;;7.53;;
22939;SDS011;11636;52.086;5.090;2022-12-16T11:16:23;11.25;;;6.78;;
22939;SDS011;11636;52.086;5.090;2022-12-16T11:22:16;10.90;;;6.90;;
22939;SDS011;11636;52.086;5.090;2022-12-16T11:28:05;10.43;;;7.32;;
22939;SDS011;11636;52.086;5.090;2022-12-16T11:31:09;13.90;;;8.20;;
22939;SDS011;11636;52.086;5.090;2022-12-16T11:33:58;13.77;;;7.95;;
22939;SDS011;11636;52.086;5.090;2022-12-16T11:36:52;17.08;;;9.60;;
22939;SDS011;11636;52.086;5.090;2022-12-16T11:39:46;15.90;;;9.43;;
22939;SDS011;11636;52.086;5.090;2022-12-16T11:42:37;14.47;;;9.53;;
22939;SDS011;11636;52.086;5.090;2022-12-16T11:45:31;15.35;;;9.60;;
22939;SDS011;11636;52.086;5.090;2022-12-16T11:48:41;15.48;;;9.48;;
22939;SDS011;11636;52.086;5.090;2022-12-16T11:51:31;13.38;;;9.25;;
22939;SDS011;11636;52.086;5.090;2022-12-16T11:54:51;14.70;;;9.63;;
22939;SDS011;11636;52.086;5.090;2022-12-16T12:01:11;15.55;;;10.32;;
22939;SDS011;11636;52.086;5.090;2022-12-16T12:04:10;16.63;;;10.35;;
22939;SDS011;11636;52.086;5.090;2022-12-16T12:10:22;17.13;;;11.00;;
22939;SDS011;11636;52.086;5.090;2022-12-16T12:16:47;14.82;;;9.73;;
22939;SDS011;11636;52.086;5.090;2022-12-16T12:22:42;14.88;;;10.52;;
22939;SDS011;11636;52.086;5.090;2022-12-16T12:25:42;17.33;;;11.48;;
22939;SDS011;11636;52.086;5.090;2022-12-16T12:28:58;16.02;;;10.15;;
22939;SDS011;11636;52.086;5.090;2022-12-16T12:48:45;14.93;;;10.45;;
22939;SDS011;11636;52.086;5.090;2022-12-16T12:51:38;16.48;;;10.75;;
22939;SDS011;11636;52.086;5.090;2022-12-16T12:54:47;17.30;;;10.45;;
22939;SDS011;11636;52.086;5.090;2022-12-16T12:57:39;17.67;;;11.07;;
22939;SDS011;11636;52.086;5.090;2022-12-16T13:00:34;16.95;;;11.15;;
22939;SDS011;11636;52.086;5.090;2022-12-16T13:03:37;17.55;;;11.18;;
22939;SDS011;11636;52.086;5.090;2022-12-16T13:06:38;17.85;;;10.75;;
22939;SDS011;11636;52.086;5.090;2022-12-16T13:09:36;18.35;;;11.02;;
22939;SDS011;11636;52.086;5.090;2022-12-16T13:12:30;13.05;;;9.05;;
22939;SDS011;11636;52.086;5.090;2022-12-16T13:18:19;18.55;;;11.52;;
22939;SDS011;11636;52.086;5.090;2022-12-16T13:27:54;21.15;;;14.60;;
22939;SDS011;11636;52.086;5.090;2022-12-16T13:30:57;24.80;;;14.40;;
22939;SDS011;11636;52.086;5.090;2022-12-16T13:33:56;24.83;;;15.52;;
22939;SDS011;11636;52.086;5.090;2022-12-16T13:37:17;26.67;;;15.25;;
22939;SDS011;11636;52.086;5.090;2022-12-16T13:40:17;24.40;;;15.50;;
22939;SDS011;11636;52.086;5.090;2022-12-16T13:44:01;24.73;;;14.75;;
22939;SDS011;11636;52.086;5.090;2022-12-16T13:49:39;22.38;;;14.63;;
22939;SDS011;11636;52.086;5.090;2022-12-16T13:56:02;23.95;;;15.82;;
22939;SDS011;11636;52.086;5.090;2022-12-16T14:01:57;23.55;;;15.27;;
22939;SDS011;11636;52.086;5.090;2022-12-16T14:05:23;25.85;;;17.00;;
22939;SDS011;11636;52.086;5.090;2022-12-16T14:08:21;24.35;;;16.25;;
22939;SDS011;11636;52.086;5.090;2022-12-16T14:11:17;25.80;;;16.35;;
22939;SDS011;11636;52.086;5.090;2022-12-16T14:17:30;31.17;;;18.92;;
22939;SDS011;11636;52.086;5.090;2022-12-16T14:20:28;26.67;;;16.75;;
22939;SDS011;11636;52.086;5.090;2022-12-16T14:23:56;22.85;;;15.45;;
22939;SDS011;11636;52.086;5.090;2022-12-16T14:27:04;21.27;;;14.50;;
22939;SDS011;11636;52.086;5.090;2022-12-16T14:30:27;24.85;;;15.88;;
22939;SDS011;11636;52.086;5.090;2022-12-16T14:33:14;27.55;;;16.15;;
22939;SDS011;11636;52.086;5.090;2022-12-16T14:36:36;23.92;;;15.02;;
22939;SDS011;11636;52.086;5.090;2022-12-16T14:39:30;20.42;;;14.00;;
22939;SDS011;11636;52.086;5.090;2022-12-16T14:42:29;20.50;;;13.85;;
22939;SDS011;11636;52.086;5.090;2022-12-16T14:45:38;20.83;;;13.68;;
22939;SDS011;11636;52.086;5.090;2022-12-16T14:48:34;20.50;;;13.82;;
22939;SDS011;11636;52.086;5.090;2022-12-16T14:51:31;22.58;;;14.60;;
22939;SDS011;11636;52.086;5.090;2022-12-16T14:57:17;18.40;;;12.57;;
22939;SDS011;11636;52.086;5.090;2022-12-16T15:00:20;20.90;;;13.27;;
22939;SDS011;11636;52.086;5.090;2022-12-16T15:03:21;18.55;;;12.65;;
22939;SDS011;11636;52.086;5.090;2022-12-16T15:06:25;23.00;;;14.35;;
22939;SDS011;11636;52.086;5.090;2022-12-16T15:12:13;16.58;;;11.45;;
22939;SDS011;11636;52.086;5.090;2022-12-16T15:15:09;16.52;;;10.50;;
22939;SDS011;11636;52.086;5.090;2022-12-16T15:18:09;16.67;;;10.63;;
22939;SDS011;11636;52.086;5.090;2022-12-16T15:21:11;13.75;;;9.52;;
22939;SDS011;11636;52.086;5.090;2022-12-16T15:24:07;14.90;;;9.32;;
22939;SDS011;11636;52.086;5.090;2022-12-16T15:33:28;13.57;;;9.18;;
22939;SDS011;11636;52.086;5.090;2022-12-16T15:42:36;12.70;;;7.82;;
22939;SDS011;11636;52.086;5.090;2022-12-16T15:45:25;12.93;;;7.82;;
22939;SDS011;11636;52.086;5.090;2022-12-16T15:48:31;11.45;;;7.40;;
22939;SDS011;11636;52.086;5.090;2022-12-16T15:51:38;11.82;;;8.23;;
22939;SDS011;11636;52.086;5.090;2022-12-16T15:54:28;10.45;;;7.03;;
22939;SDS011;11636;52.086;5.090;2022-12-16T15:57:29;11.20;;;7.13;;
22939;SDS011;11636;52.086;5.090;2022-12-16T16:03:18;10.63;;;6.85;;
22939;SDS011;11636;52.086;5.090;2022-12-16T16:06:23;10.18;;;6.85;;
22939;SDS011;11636;52.086;5.090;2022-12-16T16:09:27;9.23;;;6.47;;
22939;SDS011;11636;52.086;5.090;2022-12-16T16:12:16;10.82;;;7.15;;
22939;SDS011;11636;52.086;5.090;2022-12-16T16:15:26;11.13;;;6.47;;
22939;SDS011;11636;52.086;5.090;2022-12-16T16:18:18;12.70;;;7.90;;
22939;SDS011;11636;52.086;5.090;2022-12-16T16:21:04;11.18;;;7.55;;
22939;SDS011;11636;52.086;5.090;2022-12-16T16:24:00;13.38;;;9.15;;
22939;SDS011;11636;52.086;5.090;2022-12-16T16:26:45;15.43;;;9.85;;
22939;SDS011;11636;52.086;5.090;2022-12-16T16:29:40;18.27;;;11.10;;
22939;SDS011;11636;52.086;5.090;2022-12-16T16:32:29;15.80;;;10.63;;
22939;SDS011;11636;52.086;5.090;2022-12-16T16:35:23;14.32;;;9.65;;
22939;SDS011;11636;52.086;5.090;2022-12-16T16:38:11;12.25;;;9.02;;
22939;SDS011;11636;52.086;5.090;2022-12-16T16:43:52;13.02;;;8.68;;
22939;SDS011;11636;52.086;5.090;2022-12-16T16:49:41;10.60;;;7.85;;
22939;SDS011;11636;52.086;5.090;2022-12-16T16:52:41;11.73;;;8.13;;
22939;SDS011;11636;52.086;5.090;2022-12-16T16:55:27;11.95;;;8.52;;
22939;SDS011;11636;52.086;5.090;2022-12-16T16:58:23;13.00;;;9.10;;
22939;SDS011;11636;52.086;5.090;2022-12-16T17:01:18;10.57;;;7.90;;
22939;SDS011;11636;52.086;5.090;2022-12-16T17:04:15;10.95;;;7.93;;
22939;SDS011;11636;52.086;5.090;2022-12-16T17:07:17;10.23;;;6.95;;
22939;SDS011;11636;52.086;5.090;2022-12-16T17:10:02;11.90;;;8.00;;
22939;SDS011;11636;52.086;5.090;2022-12-16T17:12:59;12.60;;;8.02;;
22939;SDS011;11636;52.086;5.090;2022-12-16T17:15:51;11.55;;;7.95;;
22939;SDS011;11636;52.086;5.090;2022-12-16T17:18:37;10.93;;;7.63;;
22939;SDS011;11636;52.086;5.090;2022-12-16T17:21:28;11.25;;;7.47;;
22939;SDS011;11636;52.086;5.090;2022-12-16T17:24:18;13.00;;;8.88;;
22939;SDS011;11636;52.086;5.090;2022-12-16T17:27:17;11.85;;;8.10;;
22939;SDS011;11636;52.086;5.090;2022-12-16T17:30:15;15.23;;;10.05;;
22939;SDS011;11636;52.086;5.090;2022-12-16T17:33:16;12.77;;;8.23;;
22939;SDS011;11636;52.086;5.090;2022-12-16T17:36:10;15.90;;;10.77;;
22939;SDS011;11636;52.086;5.090;2022-12-16T17:39:03;17.15;;;10.93;;
22939;SDS011;11636;52.086;5.090;2022-12-16T17:41:59;26.80;;;18.42;;
22939;SDS011;11636;52.086;5.090;2022-12-16T17:44:44;25.05;;;16.52;;
22939;SDS011;11636;52.086;5.090;2022-12-16T17:47:41;24.52;;;15.90;;
22939;SDS011;11636;52.086;5.090;2022-12-16T17:50:27;24.23;;;16.30;;
22939;SDS011;11636;52.086;5.090;2022-12-16T17:53:18;25.60;;;16.80;;
22939;SDS011;11636;52.086;5.090;2022-12-16T17:56:10;26.42;;;17.33;;
22939;SDS011;11636;52.086;5.090;2022-12-16T17:58:56;23.10;;;15.65;;
22939;SDS011;11636;52.086;5.090;2022-12-16T18:01:49;24.35;;;15.65;;
22939;SDS011;11636;52.086;5.090;2022-12-16T18:04:37;21.02;;;14.35;;
22939;SDS011;11636;52.086;5.090;2022-12-16T18:07:29;19.42;;;13.50;;
22939;SDS011;11636;52.086;5.090;2022-12-16T18:10:21;21.20;;;14.82;;
22939;SDS011;11636;52.086;5.090;2022-12-16T18:13:07;19.98;;;13.77;;
22939;SDS011;11636;52.086;5.090;2022-12-16T18:16:00;19.75;;;12.68;;
22939;SDS011;11636;52.086;5.090;2022-12-16T18:18:48;18.13;;;12.20;;
22939;SDS011;11636;52.086;5.090;2022-12-16T18:21:41;21.40;;;13.50;;
22939;SDS011;11636;52.086;5.090;2022-12-16T18:24:27;21.95;;;13.10;;
22939;SDS011;11636;52.086;5.090;2022-12-16T18:27:21;20.02;;;12.93;;
22939;SDS011;11636;52.086;5.090;2022-12-16T18:30:06;18.98;;;12.70;;
22939;SDS011;11636;52.086;5.090;2022-12-16T18:32:59;22.13;;;13.57;;
22939;SDS011;11636;52.086;5.090;2022-12-16T18:35:45;18.05;;;12.18;;
22939;SDS011;11636;52.086;5.090;2022-12-16T18:38:37;19.90;;;12.93;;
22939;SDS011;11636;52.086;5.090;2022-12-16T18:41:23;18.73;;;11.85;;
22939;SDS011;11636;52.086;5.090;2022-12-16T18:44:14;21.20;;;13.00;;
22939;SDS011;11636;52.086;5.090;2022-12-16T18:47:00;18.65;;;12.18;;
22939;SDS011;11636;52.086;5.090;2022-12-16T18:49:57;18.05;;;12.25;;
22939;SDS011;11636;52.086;5.090;2022-12-16T18:52:49;17.17;;;11.00;;
22939;SDS011;11636;52.086;5.090;2022-12-16T18:55:41;16.77;;;11.55;;
22939;SDS011;11636;52.086;5.090;2022-12-16T18:58:27;18.52;;;11.75;;
22939;SDS011;11636;52.086;5.090;2022-12-16T19:01:19;16.25;;;11.05;;
22939;SDS011;11636;52.086;5.090;2022-12-16T19:04:05;20.42;;;12.80;;
22939;SDS011;11636;52.086;5.090;2022-12-16T19:06:56;19.13;;;12.25;;
22939;SDS011;11636;52.086;5.090;2022-12-16T19:09:48;18.75;;;12.18;;
22939;SDS011;11636;52.086;5.090;2022-12-16T19:15:33;20.30;;;13.30;;
22939;SDS011;11636;52.086;5.090;2022-12-16T19:18:21;22.33;;;14.10;;
22939;SDS011;11636;52.086;5.090;2022-12-16T19:21:12;24.17;;;15.35;;
22939;SDS011;11636;52.086;5.090;2022-12-16T19:24:16;23.58;;;15.77;;